sensor_id;sensor_type;location;lat;lon;timestamp;pressure;altitude;pressure_sealevel;temperature;humidity
56689;BME280;42565;53.342;-1.534;2022-08-02T00:00:20;98736.59;;;18.45;66.08
56689;BME280;42565;53.342;-1.534;2022-08-02T00:02:48;98736.07;;;18.24;65.51
56689;BME280;42565;53.342;-1.534;2022-08-02T00:05:15;98737.22;;;18.18;65.65
56689;BME280;42565;53.342;-1.534;2022-08-02T00:07:43;98744.58;;;18.11;66.70
56689;BME280;42565;53.342;-1.534;2022-08-02T00:10:11;98742.31;;;17.62;68.34
56689;BME280;42565;53.342;-1.534;2022-08-02T00:12:38;98739.41;;;18.33;65.87
56689;BME280;42565;53.342;-1.534;2022-08-02T00:15:07;98737.71;;;18.39;67.05
56689;BME280;42565;53.342;-1.534;2022-08-02T00:17:35;98728.86;;;18.41;66.22
56689;BME280;42565;53.342;-1.534;2022-08-02T00:20:04;98722.69;;;18.38;66.36
56689;BME280;42565;53.342;-1.534;2022-08-02T00:22:31;98721.31;;;18.10;68.67
56689;BME280;42565;53.342;-1.534;2022-08-02T00:24:58;98712.37;;;17.85;69.90
56689;BME280;42565;53.342;-1.534;2022-08-02T00:27:25;98708.21;;;18.14;69.55
56689;BME280;42565;53.342;-1.534;2022-08-02T00:29:52;98705.22;;;18.24;70.04
56689;BME280;42565;53.342;-1.534;2022-08-02T00:32:19;98708.94;;;17.86;70.84
56689;BME280;42565;53.342;-1.534;2022-08-02T00:34:46;98698.75;;;17.83;71.94
56689;BME280;42565;53.342;-1.534;2022-08-02T00:37:13;98700.33;;;17.75;71.95
56689;BME280;42565;53.342;-1.534;2022-08-02T00:39:41;98699.12;;;17.91;72.33
56689;BME280;42565;53.342;-1.534;2022-08-02T00:42:08;98692.49;;;18.27;71.85
56689;BME280;42565;53.342;-1.534;2022-08-02T00:44:35;98686.38;;;18.20;72.15
56689;BME280;42565;53.342;-1.534;2022-08-02T00:47:03;98683.18;;;18.39;71.40
56689;BME280;42565;53.342;-1.534;2022-08-02T00:49:30;98679.96;;;18.35;70.83
56689;BME280;42565;53.342;-1.534;2022-08-02T00:51:58;98670.67;;;18.44;71.18
56689;BME280;42565;53.342;-1.534;2022-08-02T00:54:24;98672.42;;;18.52;70.54
56689;BME280;42565;53.342;-1.534;2022-08-02T00:56:51;98666.51;;;18.36;70.28
56689;BME280;42565;53.342;-1.534;2022-08-02T00:59:18;98666.83;;;18.46;70.67
56689;BME280;42565;53.342;-1.534;2022-08-02T01:01:45;98666.96;;;18.72;69.19
56689;BME280;42565;53.342;-1.534;2022-08-02T01:04:13;98669.13;;;18.08;70.76
56689;BME280;42565;53.342;-1.534;2022-08-02T01:06:41;98667.56;;;18.04;72.74
56689;BME280;42565;53.342;-1.534;2022-08-02T01:09:08;98664.61;;;18.04;72.54
56689;BME280;42565;53.342;-1.534;2022-08-02T01:11:36;98662.20;;;17.30;74.70
56689;BME280;42565;53.342;-1.534;2022-08-02T01:14:07;98661.08;;;17.22;75.30
56689;BME280;42565;53.342;-1.534;2022-08-02T01:16:39;98652.73;;;17.14;76.55
56689;BME280;42565;53.342;-1.534;2022-08-02T01:19:21;98644.88;;;17.17;76.63
56689;BME280;42565;53.342;-1.534;2022-08-02T01:24:29;98646.63;;;17.79;75.34
56689;BME280;42565;53.342;-1.534;2022-08-02T01:27:13;98653.47;;;17.70;74.14
56689;BME280;42565;53.342;-1.534;2022-08-02T01:29:44;98637.80;;;17.39;75.00
56689;BME280;42565;53.342;-1.534;2022-08-02T01:32:17;98637.50;;;17.37;75.10
56689;BME280;42565;53.342;-1.534;2022-08-02T01:34:50;98624.75;;;18.06;73.15
56689;BME280;42565;53.342;-1.534;2022-08-02T01:37:21;98616.20;;;18.03;72.54
56689;BME280;42565;53.342;-1.534;2022-08-02T01:39:54;98612.55;;;17.49;74.55
56689;BME280;42565;53.342;-1.534;2022-08-02T01:42:24;98609.36;;;17.65;74.32
56689;BME280;42565;53.342;-1.534;2022-08-02T01:44:54;98601.75;;;18.06;73.02
56689;BME280;42565;53.342;-1.534;2022-08-02T01:47:27;98594.58;;;17.89;73.58
56689;BME280;42565;53.342;-1.534;2022-08-02T01:49:56;98600.97;;;18.07;73.15
56689;BME280;42565;53.342;-1.534;2022-08-02T01:52:24;98586.15;;;17.31;75.27
56689;BME280;42565;53.342;-1.534;2022-08-02T01:55:07;98585.05;;;17.30;75.26
56689;BME280;42565;53.342;-1.534;2022-08-02T01:57:39;98584.26;;;17.33;76.55
56689;BME280;42565;53.342;-1.534;2022-08-02T02:00:08;98578.21;;;17.17;76.94
56689;BME280;42565;53.342;-1.534;2022-08-02T02:02:39;98580.76;;;17.05;77.87
56689;BME280;42565;53.342;-1.534;2022-08-02T02:05:12;98572.30;;;17.16;77.26
56689;BME280;42565;53.342;-1.534;2022-08-02T02:07:40;98582.10;;;16.88;79.79
56689;BME280;42565;53.342;-1.534;2022-08-02T02:10:12;98578.60;;;16.80;79.09
56689;BME280;42565;53.342;-1.534;2022-08-02T02:12:42;98585.67;;;17.70;76.11
56689;BME280;42565;53.342;-1.534;2022-08-02T02:15:12;98576.92;;;17.53;75.87
56689;BME280;42565;53.342;-1.534;2022-08-02T02:17:41;98582.43;;;17.61;75.41
56689;BME280;42565;53.342;-1.534;2022-08-02T02:20:13;98583.44;;;17.87;75.21
56689;BME280;42565;53.342;-1.534;2022-08-02T02:22:41;98574.90;;;18.03;74.70
56689;BME280;42565;53.342;-1.534;2022-08-02T02:25:11;98574.12;;;17.76;75.58
56689;BME280;42565;53.342;-1.534;2022-08-02T02:27:43;98576.78;;;17.55;75.83
56689;BME280;42565;53.342;-1.534;2022-08-02T02:30:12;98571.62;;;17.24;76.99
56689;BME280;42565;53.342;-1.534;2022-08-02T02:32:41;98576.54;;;17.47;77.16
56689;BME280;42565;53.342;-1.534;2022-08-02T02:35:10;98560.60;;;17.26;78.68
56689;BME280;42565;53.342;-1.534;2022-08-02T02:37:40;98562.50;;;17.47;77.54
56689;BME280;42565;53.342;-1.534;2022-08-02T02:40:09;98558.85;;;17.55;78.27
56689;BME280;42565;53.342;-1.534;2022-08-02T02:42:38;98560.79;;;17.23;78.70
56689;BME280;42565;53.342;-1.534;2022-08-02T02:45:09;98561.49;;;17.60;77.54
56689;BME280;42565;53.342;-1.534;2022-08-02T02:47:37;98552.43;;;17.10;79.10
56689;BME280;42565;53.342;-1.534;2022-08-02T02:50:07;98547.30;;;17.85;78.08
56689;BME280;42565;53.342;-1.534;2022-08-02T02:52:35;98549.93;;;17.71;77.48
56689;BME280;42565;53.342;-1.534;2022-08-02T02:55:03;98544.65;;;17.36;78.39
56689;BME280;42565;53.342;-1.534;2022-08-02T02:57:32;98538.91;;;17.45;78.03
56689;BME280;42565;53.342;-1.534;2022-08-02T03:00:00;98548.99;;;17.44;78.11
56689;BME280;42565;53.342;-1.534;2022-08-02T03:02:27;98559.70;;;17.65;77.62
56689;BME280;42565;53.342;-1.534;2022-08-02T03:04:55;98560.31;;;17.71;77.49
56689;BME280;42565;53.342;-1.534;2022-08-02T03:07:25;98554.09;;;18.00;76.70
56689;BME280;42565;53.342;-1.534;2022-08-02T03:09:52;98545.32;;;17.85;76.97
56689;BME280;42565;53.342;-1.534;2022-08-02T03:12:21;98540.53;;;18.05;76.59
56689;BME280;42565;53.342;-1.534;2022-08-02T03:14:49;98540.17;;;17.65;77.82
56689;BME280;42565;53.342;-1.534;2022-08-02T03:17:17;98542.32;;;17.72;78.01
56689;BME280;42565;53.342;-1.534;2022-08-02T03:19:45;98538.20;;;18.21;76.42
56689;BME280;42565;53.342;-1.534;2022-08-02T03:22:12;98534.74;;;18.37;74.30
56689;BME280;42565;53.342;-1.534;2022-08-02T03:24:39;98535.39;;;18.23;75.37
56689;BME280;42565;53.342;-1.534;2022-08-02T03:27:07;98537.74;;;18.10;74.46
56689;BME280;42565;53.342;-1.534;2022-08-02T03:29:33;98540.10;;;18.43;75.32
56689;BME280;42565;53.342;-1.534;2022-08-02T03:32:01;98542.63;;;17.91;77.26
56689;BME280;42565;53.342;-1.534;2022-08-02T03:34:28;98537.39;;;18.34;76.13
56689;BME280;42565;53.342;-1.534;2022-08-02T03:36:56;98526.64;;;18.48;74.08
56689;BME280;42565;53.342;-1.534;2022-08-02T03:39:24;98525.65;;;18.11;76.42
56689;BME280;42565;53.342;-1.534;2022-08-02T03:41:52;98523.71;;;18.57;74.37
56689;BME280;42565;53.342;-1.534;2022-08-02T03:44:21;98527.40;;;18.46;73.21
56689;BME280;42565;53.342;-1.534;2022-08-02T03:46:50;98513.44;;;18.65;73.78
56689;BME280;42565;53.342;-1.534;2022-08-02T03:49:18;98501.70;;;18.20;74.48
56689;BME280;42565;53.342;-1.534;2022-08-02T03:51:46;98511.25;;;17.94;76.82
56689;BME280;42565;53.342;-1.534;2022-08-02T03:54:14;98507.62;;;17.81;77.75
56689;BME280;42565;53.342;-1.534;2022-08-02T03:56:42;98503.24;;;18.10;76.61
56689;BME280;42565;53.342;-1.534;2022-08-02T03:59:12;98505.13;;;17.89;77.45
56689;BME280;42565;53.342;-1.534;2022-08-02T04:01:40;98502.09;;;18.30;76.43
56689;BME280;42565;53.342;-1.534;2022-08-02T04:04:07;98498.04;;;18.49;75.11
56689;BME280;42565;53.342;-1.534;2022-08-02T04:06:35;98501.07;;;18.53;76.08
56689;BME280;42565;53.342;-1.534;2022-08-02T04:09:03;98487.26;;;18.34;75.85
56689;BME280;42565;53.342;-1.534;2022-08-02T04:11:30;98491.19;;;18.14;77.37
56689;BME280;42565;53.342;-1.534;2022-08-02T04:13:58;98481.60;;;18.10;77.93
56689;BME280;42565;53.342;-1.534;2022-08-02T04:16:32;98478.46;;;18.50;75.91
56689;BME280;42565;53.342;-1.534;2022-08-02T04:19:02;98475.31;;;18.33;77.01
56689;BME280;42565;53.342;-1.534;2022-08-02T04:21:34;98477.13;;;17.94;78.16
56689;BME280;42565;53.342;-1.534;2022-08-02T04:24:04;98477.95;;;17.85;78.79
56689;BME280;42565;53.342;-1.534;2022-08-02T04:26:33;98471.81;;;17.57;79.48
56689;BME280;42565;53.342;-1.534;2022-08-02T04:29:02;98471.58;;;17.70;79.78
56689;BME280;42565;53.342;-1.534;2022-08-02T04:31:29;98462.81;;;18.55;76.54
56689;BME280;42565;53.342;-1.534;2022-08-02T04:33:57;98462.13;;;18.87;75.87
56689;BME280;42565;53.342;-1.534;2022-08-02T04:36:24;98464.23;;;17.79;79.34
56689;BME280;42565;53.342;-1.534;2022-08-02T04:38:51;98463.81;;;17.66;79.88
56689;BME280;42565;53.342;-1.534;2022-08-02T04:41:18;98466.81;;;17.69;79.91
56689;BME280;42565;53.342;-1.534;2022-08-02T04:43:46;98469.33;;;18.14;78.46
56689;BME280;42565;53.342;-1.534;2022-08-02T04:46:14;98474.00;;;17.92;78.97
56689;BME280;42565;53.342;-1.534;2022-08-02T04:48:41;98469.99;;;18.16;78.74
56689;BME280;42565;53.342;-1.534;2022-08-02T04:51:08;98482.09;;;18.04;78.07
56689;BME280;42565;53.342;-1.534;2022-08-02T04:53:35;98483.75;;;18.54;77.05
56689;BME280;42565;53.342;-1.534;2022-08-02T04:56:03;98493.82;;;18.44;77.33
56689;BME280;42565;53.342;-1.534;2022-08-02T04:58:30;98491.76;;;18.46;76.90
56689;BME280;42565;53.342;-1.534;2022-08-02T05:00:57;98512.86;;;19.08;74.63
56689;BME280;42565;53.342;-1.534;2022-08-02T05:03:24;98510.54;;;19.05;73.60
56689;BME280;42565;53.342;-1.534;2022-08-02T05:05:51;98515.99;;;19.53;72.19
56689;BME280;42565;53.342;-1.534;2022-08-02T05:08:19;98523.40;;;18.47;74.68
56689;BME280;42565;53.342;-1.534;2022-08-02T05:10:46;98528.85;;;18.74;76.35
56689;BME280;42565;53.342;-1.534;2022-08-02T05:13:13;98530.28;;;17.80;76.11
56689;BME280;42565;53.342;-1.534;2022-08-02T05:15:39;98536.90;;;18.71;75.45
56689;BME280;42565;53.342;-1.534;2022-08-02T05:18:06;98536.17;;;18.33;76.85
56689;BME280;42565;53.342;-1.534;2022-08-02T05:20:34;98536.46;;;18.46;76.71
56689;BME280;42565;53.342;-1.534;2022-08-02T05:23:01;98534.91;;;18.81;75.04
56689;BME280;42565;53.342;-1.534;2022-08-02T05:25:29;98528.67;;;18.54;75.79
56689;BME280;42565;53.342;-1.534;2022-08-02T05:27:56;98538.63;;;18.80;75.29
56689;BME280;42565;53.342;-1.534;2022-08-02T05:30:24;98535.21;;;18.68;75.67
56689;BME280;42565;53.342;-1.534;2022-08-02T05:32:51;98529.90;;;19.12;74.42
56689;BME280;42565;53.342;-1.534;2022-08-02T05:35:19;98517.99;;;19.05;73.49
56689;BME280;42565;53.342;-1.534;2022-08-02T05:37:47;98515.09;;;19.13;75.36
56689;BME280;42565;53.342;-1.534;2022-08-02T05:40:14;98520.02;;;19.01;74.99
56689;BME280;42565;53.342;-1.534;2022-08-02T05:42:42;98518.92;;;18.99;75.04
56689;BME280;42565;53.342;-1.534;2022-08-02T05:45:10;98521.18;;;19.76;72.95
56689;BME280;42565;53.342;-1.534;2022-08-02T05:47:38;98515.63;;;19.30;74.16
56689;BME280;42565;53.342;-1.534;2022-08-02T05:50:07;98512.67;;;18.40;77.89
56689;BME280;42565;53.342;-1.534;2022-08-02T05:52:41;98514.49;;;18.77;76.06
56689;BME280;42565;53.342;-1.534;2022-08-02T05:55:11;98517.07;;;18.73;76.35
56689;BME280;42565;53.342;-1.534;2022-08-02T05:57:49;98520.11;;;18.76;76.33
56689;BME280;42565;53.342;-1.534;2022-08-02T06:00:18;98527.67;;;19.35;75.41
56689;BME280;42565;53.342;-1.534;2022-08-02T06:03:03;98535.70;;;18.92;75.88
56689;BME280;42565;53.342;-1.534;2022-08-02T06:05:33;98535.63;;;18.98;75.34
56689;BME280;42565;53.342;-1.534;2022-08-02T06:08:01;98541.80;;;18.87;75.78
56689;BME280;42565;53.342;-1.534;2022-08-02T06:10:29;98548.00;;;18.83;75.66
56689;BME280;42565;53.342;-1.534;2022-08-02T06:13:06;98550.00;;;18.54;78.15
56689;BME280;42565;53.342;-1.534;2022-08-02T06:15:34;98552.46;;;19.33;75.59
56689;BME280;42565;53.342;-1.534;2022-08-02T06:18:02;98549.06;;;18.76;75.94
56689;BME280;42565;53.342;-1.534;2022-08-02T06:20:30;98548.81;;;19.03;75.79
56689;BME280;42565;53.342;-1.534;2022-08-02T06:22:57;98554.73;;;19.58;74.53
56689;BME280;42565;53.342;-1.534;2022-08-02T06:25:26;98564.88;;;19.02;74.24
56689;BME280;42565;53.342;-1.534;2022-08-02T06:27:54;98565.10;;;19.51;72.90
56689;BME280;42565;53.342;-1.534;2022-08-02T06:30:23;98564.41;;;18.92;74.94
56689;BME280;42565;53.342;-1.534;2022-08-02T06:32:51;98563.23;;;19.41;73.56
56689;BME280;42565;53.342;-1.534;2022-08-02T06:35:18;98567.56;;;18.88;73.90
56689;BME280;42565;53.342;-1.534;2022-08-02T06:37:50;98557.61;;;19.52;73.33
56689;BME280;42565;53.342;-1.534;2022-08-02T06:40:25;98561.27;;;19.24;73.14
56689;BME280;42565;53.342;-1.534;2022-08-02T06:43:02;98557.86;;;19.20;74.44
56689;BME280;42565;53.342;-1.534;2022-08-02T06:45:32;98554.75;;;18.75;76.49
56689;BME280;42565;53.342;-1.534;2022-08-02T06:48:00;98556.66;;;19.12;75.33
56689;BME280;42565;53.342;-1.534;2022-08-02T06:50:27;98557.03;;;19.07;75.72
56689;BME280;42565;53.342;-1.534;2022-08-02T06:52:56;98555.00;;;18.65;77.25
56689;BME280;42565;53.342;-1.534;2022-08-02T06:55:23;98554.35;;;18.30;79.28
56689;BME280;42565;53.342;-1.534;2022-08-02T06:57:50;98552.76;;;18.40;80.30
56689;BME280;42565;53.342;-1.534;2022-08-02T07:00:16;98551.43;;;18.33;78.44
56689;BME280;42565;53.342;-1.534;2022-08-02T07:02:43;98543.73;;;18.97;77.82
56689;BME280;42565;53.342;-1.534;2022-08-02T07:05:10;98541.51;;;18.75;77.62
56689;BME280;42565;53.342;-1.534;2022-08-02T07:07:37;98547.51;;;19.06;76.56
56689;BME280;42565;53.342;-1.534;2022-08-02T07:10:05;98549.29;;;19.04;76.62
56689;BME280;42565;53.342;-1.534;2022-08-02T07:12:33;98551.41;;;18.94;76.02
56689;BME280;42565;53.342;-1.534;2022-08-02T07:15:03;98551.08;;;18.76;77.26
56689;BME280;42565;53.342;-1.534;2022-08-02T07:17:30;98555.30;;;18.59;79.22
56689;BME280;42565;53.342;-1.534;2022-08-02T07:19:58;98560.97;;;18.22;79.96
56689;BME280;42565;53.342;-1.534;2022-08-02T07:22:26;98565.93;;;19.03;77.36
56689;BME280;42565;53.342;-1.534;2022-08-02T07:24:54;98564.53;;;18.47;78.38
56689;BME280;42565;53.342;-1.534;2022-08-02T07:27:21;98555.72;;;19.10;76.79
56689;BME280;42565;53.342;-1.534;2022-08-02T07:29:48;98542.21;;;19.66;74.78
56689;BME280;42565;53.342;-1.534;2022-08-02T07:32:18;98545.02;;;18.80;75.88
56689;BME280;42565;53.342;-1.534;2022-08-02T07:34:46;98546.69;;;19.04;76.26
56689;BME280;42565;53.342;-1.534;2022-08-02T07:37:13;98548.83;;;18.59;76.69
56689;BME280;42565;53.342;-1.534;2022-08-02T07:39:40;98546.18;;;19.63;74.65
56689;BME280;42565;53.342;-1.534;2022-08-02T07:42:08;98556.22;;;19.52;75.39
56689;BME280;42565;53.342;-1.534;2022-08-02T07:44:35;98560.02;;;19.28;75.11
56689;BME280;42565;53.342;-1.534;2022-08-02T07:47:03;98555.97;;;19.36;75.70
56689;BME280;42565;53.342;-1.534;2022-08-02T07:49:30;98557.59;;;19.23;75.90
56689;BME280;42565;53.342;-1.534;2022-08-02T07:51:58;98554.08;;;18.91;78.27
56689;BME280;42565;53.342;-1.534;2022-08-02T07:54:25;98548.90;;;19.03;78.02
56689;BME280;42565;53.342;-1.534;2022-08-02T07:56:53;98541.52;;;18.46;79.14
56689;BME280;42565;53.342;-1.534;2022-08-02T07:59:20;98538.56;;;18.92;78.97
56689;BME280;42565;53.342;-1.534;2022-08-02T08:01:48;98538.81;;;18.79;79.78
56689;BME280;42565;53.342;-1.534;2022-08-02T08:04:15;98553.77;;;18.70;77.36
56689;BME280;42565;53.342;-1.534;2022-08-02T08:06:43;98552.12;;;18.90;77.87
56689;BME280;42565;53.342;-1.534;2022-08-02T08:09:10;98550.95;;;19.73;76.03
56689;BME280;42565;53.342;-1.534;2022-08-02T08:11:38;98559.78;;;19.04;77.60
56689;BME280;42565;53.342;-1.534;2022-08-02T08:14:05;98562.31;;;18.98;77.93
56689;BME280;42565;53.342;-1.534;2022-08-02T08:16:33;98569.11;;;18.96;76.89
56689;BME280;42565;53.342;-1.534;2022-08-02T08:19:01;98567.06;;;18.76;80.41
56689;BME280;42565;53.342;-1.534;2022-08-02T08:21:29;98562.33;;;18.75;79.17
56689;BME280;42565;53.342;-1.534;2022-08-02T08:23:56;98560.11;;;19.46;76.77
56689;BME280;42565;53.342;-1.534;2022-08-02T08:26:23;98559.67;;;19.19;76.70
56689;BME280;42565;53.342;-1.534;2022-08-02T08:28:50;98552.94;;;19.19;77.77
56689;BME280;42565;53.342;-1.534;2022-08-02T08:31:18;98554.95;;;19.02;78.55
56689;BME280;42565;53.342;-1.534;2022-08-02T08:33:45;98549.98;;;19.57;77.28
56689;BME280;42565;53.342;-1.534;2022-08-02T08:36:12;98546.47;;;19.39;78.89
56689;BME280;42565;53.342;-1.534;2022-08-02T08:38:39;98538.22;;;18.77;80.13
56689;BME280;42565;53.342;-1.534;2022-08-02T08:41:06;98542.97;;;19.15;79.68
56689;BME280;42565;53.342;-1.534;2022-08-02T08:43:33;98537.74;;;19.46;78.52
56689;BME280;42565;53.342;-1.534;2022-08-02T08:46:01;98541.36;;;18.94;80.29
56689;BME280;42565;53.342;-1.534;2022-08-02T08:48:30;98539.90;;;19.50;78.49
56689;BME280;42565;53.342;-1.534;2022-08-02T08:51:04;98539.92;;;19.76;77.45
56689;BME280;42565;53.342;-1.534;2022-08-02T08:53:38;98543.31;;;19.49;79.14
56689;BME280;42565;53.342;-1.534;2022-08-02T08:56:07;98542.31;;;19.29;79.28
56689;BME280;42565;53.342;-1.534;2022-08-02T08:58:34;98549.99;;;18.96;79.38
56689;BME280;42565;53.342;-1.534;2022-08-02T09:01:01;98547.31;;;19.44;79.28
56689;BME280;42565;53.342;-1.534;2022-08-02T09:03:28;98547.48;;;19.24;80.18
56689;BME280;42565;53.342;-1.534;2022-08-02T09:05:56;98550.00;;;19.42;78.32
56689;BME280;42565;53.342;-1.534;2022-08-02T09:08:23;98553.20;;;19.18;80.41
56689;BME280;42565;53.342;-1.534;2022-08-02T09:10:51;98547.49;;;19.35;78.42
56689;BME280;42565;53.342;-1.534;2022-08-02T09:13:20;98545.65;;;19.24;79.32
56689;BME280;42565;53.342;-1.534;2022-08-02T09:15:54;98541.08;;;19.51;78.13
56689;BME280;42565;53.342;-1.534;2022-08-02T09:18:28;98547.89;;;19.65;77.07
56689;BME280;42565;53.342;-1.534;2022-08-02T09:20:59;98547.71;;;20.17;76.43
56689;BME280;42565;53.342;-1.534;2022-08-02T09:23:33;98545.04;;;19.78;78.03
56689;BME280;42565;53.342;-1.534;2022-08-02T09:26:04;98534.36;;;19.72;77.83
56689;BME280;42565;53.342;-1.534;2022-08-02T09:28:33;98532.62;;;20.06;76.09
56689;BME280;42565;53.342;-1.534;2022-08-02T09:31:04;98531.24;;;20.14;76.16
56689;BME280;42565;53.342;-1.534;2022-08-02T09:33:31;98538.38;;;19.13;79.79
56689;BME280;42565;53.342;-1.534;2022-08-02T09:36:01;98539.97;;;19.50;80.66
56689;BME280;42565;53.342;-1.534;2022-08-02T09:38:29;98534.74;;;19.16;78.86
56689;BME280;42565;53.342;-1.534;2022-08-02T09:40:57;98533.96;;;19.87;78.68
56689;BME280;42565;53.342;-1.534;2022-08-02T09:43:41;98531.98;;;20.38;76.60
56689;BME280;42565;53.342;-1.534;2022-08-02T09:46:11;98532.64;;;20.30;77.38
56689;BME280;42565;53.342;-1.534;2022-08-02T09:48:47;98534.45;;;20.69;76.00
56689;BME280;42565;53.342;-1.534;2022-08-02T09:51:17;98521.44;;;21.25;74.42
56689;BME280;42565;53.342;-1.534;2022-08-02T09:53:46;98523.80;;;21.27;74.97
56689;BME280;42565;53.342;-1.534;2022-08-02T09:56:15;98527.49;;;20.61;73.45
56689;BME280;42565;53.342;-1.534;2022-08-02T09:58:42;98528.78;;;20.70;73.67
56689;BME280;42565;53.342;-1.534;2022-08-02T10:01:09;98521.14;;;20.18;75.03
56689;BME280;42565;53.342;-1.534;2022-08-02T10:03:36;98531.95;;;20.11;74.89
56689;BME280;42565;53.342;-1.534;2022-08-02T10:06:03;98535.96;;;20.42;75.85
56689;BME280;42565;53.342;-1.534;2022-08-02T10:08:31;98559.98;;;20.14;74.82
56689;BME280;42565;53.342;-1.534;2022-08-02T10:10:58;98563.99;;;20.25;75.23
56689;BME280;42565;53.342;-1.534;2022-08-02T10:13:28;98549.04;;;19.52;77.31
56689;BME280;42565;53.342;-1.534;2022-08-02T10:15:56;98549.28;;;19.99;75.82
56689;BME280;42565;53.342;-1.534;2022-08-02T10:18:24;98543.76;;;19.49;77.41
56689;BME280;42565;53.342;-1.534;2022-08-02T10:20:55;98544.55;;;20.17;75.43
56689;BME280;42565;53.342;-1.534;2022-08-02T10:23:25;98530.43;;;19.94;76.87
56689;BME280;42565;53.342;-1.534;2022-08-02T10:25:53;98535.57;;;19.63;76.61
56689;BME280;42565;53.342;-1.534;2022-08-02T10:28:25;98526.13;;;19.43;77.48
56689;BME280;42565;53.342;-1.534;2022-08-02T10:30:54;98515.65;;;19.72;76.40
56689;BME280;42565;53.342;-1.534;2022-08-02T10:33:23;98517.29;;;20.32;74.04
56689;BME280;42565;53.342;-1.534;2022-08-02T10:35:50;98529.28;;;19.75;75.33
56689;BME280;42565;53.342;-1.534;2022-08-02T10:38:19;98535.74;;;20.15;74.69
56689;BME280;42565;53.342;-1.534;2022-08-02T10:40:48;98548.17;;;20.48;72.68
56689;BME280;42565;53.342;-1.534;2022-08-02T10:43:40;98550.00;;;19.88;74.34
56689;BME280;42565;53.342;-1.534;2022-08-02T10:46:39;98550.11;;;20.10;75.51
56689;BME280;42565;53.342;-1.534;2022-08-02T10:49:10;98525.69;;;20.51;74.57
56689;BME280;42565;53.342;-1.534;2022-08-02T10:51:56;98542.02;;;20.36;73.82
56689;BME280;42565;53.342;-1.534;2022-08-02T10:54:24;98528.44;;;20.63;73.53
56689;BME280;42565;53.342;-1.534;2022-08-02T10:56:53;98535.96;;;20.41;74.17
56689;BME280;42565;53.342;-1.534;2022-08-02T10:59:24;98542.39;;;20.47;73.35
56689;BME280;42565;53.342;-1.534;2022-08-02T11:01:53;98538.46;;;20.32;71.88
56689;BME280;42565;53.342;-1.534;2022-08-02T11:04:20;98554.90;;;20.81;71.76
56689;BME280;42565;53.342;-1.534;2022-08-02T11:07:30;98552.74;;;20.77;71.97
56689;BME280;42565;53.342;-1.534;2022-08-02T11:09:58;98545.99;;;21.55;68.54
56689;BME280;42565;53.342;-1.534;2022-08-02T11:12:25;98538.95;;;20.87;70.08
56689;BME280;42565;53.342;-1.534;2022-08-02T11:14:58;98536.40;;;20.27;72.70
56689;BME280;42565;53.342;-1.534;2022-08-02T11:17:26;98523.10;;;20.23;72.98
56689;BME280;42565;53.342;-1.534;2022-08-02T11:20:26;98520.92;;;20.61;71.48
56689;BME280;42565;53.342;-1.534;2022-08-02T11:22:54;98516.86;;;20.46;71.72
56689;BME280;42565;53.342;-1.534;2022-08-02T11:25:30;98517.66;;;20.78;71.16
56689;BME280;42565;53.342;-1.534;2022-08-02T11:27:58;98515.44;;;20.45;72.13
56689;BME280;42565;53.342;-1.534;2022-08-02T11:30:26;98510.16;;;20.92;71.27
56689;BME280;42565;53.342;-1.534;2022-08-02T11:32:55;98504.08;;;21.38;70.29
56689;BME280;42565;53.342;-1.534;2022-08-02T11:35:31;98512.86;;;20.94;70.81
56689;BME280;42565;53.342;-1.534;2022-08-02T11:38:11;98489.89;;;20.86;71.52
56689;BME280;42565;53.342;-1.534;2022-08-02T11:40:39;98492.51;;;21.14;70.20
56689;BME280;42565;53.342;-1.534;2022-08-02T11:43:16;98507.91;;;21.61;68.10
56689;BME280;42565;53.342;-1.534;2022-08-02T11:45:44;98493.75;;;21.50;68.40
56689;BME280;42565;53.342;-1.534;2022-08-02T11:48:12;98498.71;;;21.92;65.60
56689;BME280;42565;53.342;-1.534;2022-08-02T11:50:39;98496.87;;;22.07;65.40
56689;BME280;42565;53.342;-1.534;2022-08-02T11:53:15;98489.11;;;22.20;65.77
56689;BME280;42565;53.342;-1.534;2022-08-02T11:55:42;98488.91;;;22.04;66.04
56689;BME280;42565;53.342;-1.534;2022-08-02T11:58:10;98481.75;;;21.40;67.54
56689;BME280;42565;53.342;-1.534;2022-08-02T12:00:37;98478.86;;;21.33;68.92
56689;BME280;42565;53.342;-1.534;2022-08-02T12:03:06;98489.63;;;21.63;68.63
56689;BME280;42565;53.342;-1.534;2022-08-02T12:05:33;98488.33;;;21.39;67.44
56689;BME280;42565;53.342;-1.534;2022-08-02T12:08:05;98494.11;;;21.27;68.33
56689;BME280;42565;53.342;-1.534;2022-08-02T12:10:32;98497.79;;;20.91;69.10
56689;BME280;42565;53.342;-1.534;2022-08-02T12:13:00;98488.18;;;20.59;70.49
56689;BME280;42565;53.342;-1.534;2022-08-02T12:15:31;98480.61;;;20.35;70.86
56689;BME280;42565;53.342;-1.534;2022-08-02T12:17:59;98487.84;;;20.19;71.17
56689;BME280;42565;53.342;-1.534;2022-08-02T12:20:35;98490.33;;;20.84;70.75
56689;BME280;42565;53.342;-1.534;2022-08-02T12:23:02;98492.98;;;20.68;70.34
56689;BME280;42565;53.342;-1.534;2022-08-02T12:25:29;98485.94;;;21.13;68.05
56689;BME280;42565;53.342;-1.534;2022-08-02T12:28:13;98498.22;;;21.01;67.22
56689;BME280;42565;53.342;-1.534;2022-08-02T12:30:49;98494.54;;;21.50;66.21
56689;BME280;42565;53.342;-1.534;2022-08-02T12:33:18;98509.24;;;21.22;64.74
56689;BME280;42565;53.342;-1.534;2022-08-02T12:35:45;98489.13;;;22.40;63.16
56689;BME280;42565;53.342;-1.534;2022-08-02T12:38:13;98493.39;;;22.17;62.00
56689;BME280;42565;53.342;-1.534;2022-08-02T12:40:40;98493.06;;;22.84;60.34
56689;BME280;42565;53.342;-1.534;2022-08-02T12:43:16;98484.51;;;22.54;60.64
56689;BME280;42565;53.342;-1.534;2022-08-02T12:45:46;98481.59;;;22.13;61.01
56689;BME280;42565;53.342;-1.534;2022-08-02T12:48:13;98486.90;;;21.93;60.94
56689;BME280;42565;53.342;-1.534;2022-08-02T12:50:40;98475.14;;;23.08;58.96
56689;BME280;42565;53.342;-1.534;2022-08-02T12:53:10;98490.88;;;22.69;59.23
56689;BME280;42565;53.342;-1.534;2022-08-02T12:55:47;98492.48;;;22.79;58.50
56689;BME280;42565;53.342;-1.534;2022-08-02T12:58:14;98502.60;;;22.60;60.32
56689;BME280;42565;53.342;-1.534;2022-08-02T13:00:41;98484.63;;;23.60;56.93
56689;BME280;42565;53.342;-1.534;2022-08-02T13:03:11;98497.11;;;23.31;57.27